createdAt,value
2018-07-17T18:57:01.948Z,19.93
2018-07-17T18:59:30.336Z,20.57
2018-07-17T19:02:00.425Z,19.63
2018-07-17T19:04:32.848Z,17.97
2018-07-17T19:07:01.193Z,17.70
2018-07-17T19:09:29.494Z,18.40
2018-07-17T19:11:57.796Z,19.37
2018-07-17T19:14:26.160Z,21.60
2018-07-17T19:16:55.379Z,21.77
2018-07-17T19:19:27.910Z,18.20
2018-07-17T19:21:56.311Z,20.27
2018-07-17T19:24:28.199Z,20.30
2018-07-17T19:26:56.597Z,18.40
2018-07-17T19:29:28.310Z,20.10
2018-07-17T19:31:56.822Z,17.93
2018-07-17T19:34:25.228Z,17.40
2018-07-17T19:36:53.606Z,18.20
2018-07-17T19:39:22.838Z,17.43
2018-07-17T19:41:51.505Z,16.90
2018-07-17T19:44:20.171Z,16.70
2018-07-17T19:46:50.447Z,16.57
2018-07-17T19:49:25.700Z,17.47
2018-07-17T19:51:54.834Z,18.47
2018-07-17T19:54:23.144Z,21.97
2018-07-17T19:56:54.647Z,18.10
2018-07-17T19:59:24.399Z,21.27
2018-07-17T20:01:52.730Z,18.70
2018-07-17T20:04:22.130Z,18.10
2018-07-17T20:06:50.399Z,18.13
2018-07-17T20:09:18.716Z,19.40
2018-07-17T20:11:47.158Z,18.73
2018-07-17T20:14:15.962Z,16.93
2018-07-17T20:16:44.128Z,18.93
2018-07-17T20:19:13.214Z,17.20
2018-07-17T20:21:44.674Z,15.20
2018-07-17T20:24:13.037Z,14.20
2018-07-17T20:26:41.367Z,16.40
2018-07-17T20:29:09.556Z,15.17
2018-07-17T20:31:39.247Z,17.10
2018-07-17T20:34:07.660Z,14.20
2018-07-17T20:36:37.076Z,14.33
2018-07-17T20:39:09.735Z,14.27
2018-07-17T20:41:42.148Z,15.67
2018-07-17T20:44:10.553Z,17.43
2018-07-17T20:46:39.302Z,16.90
2018-07-17T20:49:11.366Z,16.57
2018-07-17T20:51:40.793Z,15.70
2018-07-17T20:54:10.063Z,14.83
2018-07-17T20:56:38.303Z,18.40
2018-07-17T20:59:09.667Z,16.43
2018-07-17T21:01:40.885Z,14.07
2018-07-17T21:04:10.181Z,13.27
